sensor_id;sensor_type;location;lat;lon;timestamp;pressure;altitude;pressure_sealevel;temperature;humidity
19259;BME280;9763;48.780;9.212;2023-05-25T00:02:31;98773.47;;;15.26;40.69
19259;BME280;9763;48.780;9.212;2023-05-25T00:05:56;98771.91;;;15.23;40.32
19259;BME280;9763;48.780;9.212;2023-05-25T00:09:23;98771.91;;;15.23;40.41
19259;BME280;9763;48.780;9.212;2023-05-25T00:12:47;98771.22;;;15.21;40.56
19259;BME280;9763;48.780;9.212;2023-05-25T00:16:12;98776.09;;;15.26;40.58
19259;BME280;9763;48.780;9.212;2023-05-25T00:19:36;98773.13;;;15.30;40.42
19259;BME280;9763;48.780;9.212;2023-05-25T00:23:03;98776.09;;;15.37;40.66
19259;BME280;9763;48.780;9.212;2023-05-25T00:26:27;98769.53;;;15.42;40.87
19259;BME280;9763;48.780;9.212;2023-05-25T00:29:50;98768.19;;;15.48;41.07
19259;BME280;9763;48.780;9.212;2023-05-25T00:33:16;98769.63;;;15.52;40.85
19259;BME280;9763;48.780;9.212;2023-05-25T00:36:39;98770.81;;;15.59;40.84
19259;BME280;9763;48.780;9.212;2023-05-25T00:40:09;98767.84;;;15.64;40.70
19259;BME280;9763;48.780;9.212;2023-05-25T00:43:35;98770.13;;;15.68;40.63
19259;BME280;9763;48.780;9.212;2023-05-25T00:46:59;98779.41;;;15.72;40.76
19259;BME280;9763;48.780;9.212;2023-05-25T00:50:37;98759.31;;;15.71;41.24
19259;BME280;9763;48.780;9.212;2023-05-25T00:54:01;98763.38;;;15.75;41.00
19259;BME280;9763;48.780;9.212;2023-05-25T00:57:28;98760.03;;;15.73;41.06
19259;BME280;9763;48.780;9.212;2023-05-25T01:00:57;98756.97;;;15.68;41.30
19259;BME280;9763;48.780;9.212;2023-05-25T01:04:23;98751.22;;;15.63;41.03
19259;BME280;9763;48.780;9.212;2023-05-25T01:07:52;98750.88;;;15.57;41.42
19259;BME280;9763;48.780;9.212;2023-05-25T01:11:25;98748.94;;;15.47;41.67
19259;BME280;9763;48.780;9.212;2023-05-25T01:14:52;98749.56;;;15.40;41.25
19259;BME280;9763;48.780;9.212;2023-05-25T01:18:19;98743.22;;;15.31;41.29
19259;BME280;9763;48.780;9.212;2023-05-25T01:21:52;98735.59;;;15.17;41.94
19259;BME280;9763;48.780;9.212;2023-05-25T01:25:24;98743.00;;;15.12;41.44
19259;BME280;9763;48.780;9.212;2023-05-25T01:28:51;98751.94;;;15.09;41.65
19259;BME280;9763;48.780;9.212;2023-05-25T01:32:17;98746.44;;;15.01;41.70
19259;BME280;9763;48.780;9.212;2023-05-25T01:35:41;98748.00;;;14.93;41.60
19259;BME280;9763;48.780;9.212;2023-05-25T01:39:08;98751.47;;;14.82;41.96
19259;BME280;9763;48.780;9.212;2023-05-25T01:42:32;98756.34;;;14.75;42.05
19259;BME280;9763;48.780;9.212;2023-05-25T01:46:11;98763.16;;;14.67;41.84
19259;BME280;9763;48.780;9.212;2023-05-25T01:49:50;98763.84;;;14.58;42.35
19259;BME280;9763;48.780;9.212;2023-05-25T01:53:22;98763.72;;;14.48;42.49
19259;BME280;9763;48.780;9.212;2023-05-25T01:56:51;98762.25;;;14.44;42.60
19259;BME280;9763;48.780;9.212;2023-05-25T02:00:19;98738.91;;;14.28;42.56
19259;BME280;9763;48.780;9.212;2023-05-25T02:03:46;98763.88;;;14.34;42.60
19259;BME280;9763;48.780;9.212;2023-05-25T02:07:11;98758.94;;;14.29;42.57
19259;BME280;9763;48.780;9.212;2023-05-25T02:10:35;98762.16;;;14.22;42.90
19259;BME280;9763;48.780;9.212;2023-05-25T02:14:00;98754.59;;;14.17;42.88
19259;BME280;9763;48.780;9.212;2023-05-25T02:17:24;98748.75;;;14.14;42.82
19259;BME280;9763;48.780;9.212;2023-05-25T02:20:49;98740.16;;;14.12;42.90
19259;BME280;9763;48.780;9.212;2023-05-25T02:24:13;98739.34;;;14.11;42.95
19259;BME280;9763;48.780;9.212;2023-05-25T02:27:37;98738.72;;;14.07;43.37
19259;BME280;9763;48.780;9.212;2023-05-25T02:31:03;98736.19;;;14.06;43.32
19259;BME280;9763;48.780;9.212;2023-05-25T02:34:26;98737.25;;;14.03;43.06
19259;BME280;9763;48.780;9.212;2023-05-25T02:37:51;98738.44;;;13.99;43.61
19259;BME280;9763;48.780;9.212;2023-05-25T02:41:15;98731.13;;;13.92;43.32
19259;BME280;9763;48.780;9.212;2023-05-25T02:44:39;98736.72;;;13.87;43.38
19259;BME280;9763;48.780;9.212;2023-05-25T02:48:04;98728.34;;;13.82;43.30
19259;BME280;9763;48.780;9.212;2023-05-25T02:51:29;98735.47;;;13.80;43.84
19259;BME280;9763;48.780;9.212;2023-05-25T02:54:54;98742.72;;;13.77;43.60
19259;BME280;9763;48.780;9.212;2023-05-25T02:58:24;98744.75;;;13.73;43.58
19259;BME280;9763;48.780;9.212;2023-05-25T03:02:01;98730.63;;;13.63;43.95
19259;BME280;9763;48.780;9.212;2023-05-25T03:05:26;98742.25;;;13.72;43.29
19259;BME280;9763;48.780;9.212;2023-05-25T03:08:50;98752.84;;;13.70;43.92
19259;BME280;9763;48.780;9.212;2023-05-25T03:12:13;98743.97;;;13.60;44.11
19259;BME280;9763;48.780;9.212;2023-05-25T03:15:37;98757.13;;;13.71;43.82
19259;BME280;9763;48.780;9.212;2023-05-25T03:19:01;98746.69;;;13.58;43.97
19259;BME280;9763;48.780;9.212;2023-05-25T03:22:30;98764.16;;;13.70;44.03
19259;BME280;9763;48.780;9.212;2023-05-25T03:25:54;98768.78;;;13.67;44.06
19259;BME280;9763;48.780;9.212;2023-05-25T03:29:17;98766.28;;;13.65;43.97
19259;BME280;9763;48.780;9.212;2023-05-25T03:32:41;98763.06;;;13.62;43.94
19259;BME280;9763;48.780;9.212;2023-05-25T03:36:06;98752.16;;;13.55;44.17
19259;BME280;9763;48.780;9.212;2023-05-25T03:39:32;98764.09;;;13.59;44.17
19259;BME280;9763;48.780;9.212;2023-05-25T03:42:56;98757.19;;;13.58;44.19
19259;BME280;9763;48.780;9.212;2023-05-25T03:46:20;98753.72;;;13.58;44.05
19259;BME280;9763;48.780;9.212;2023-05-25T03:49:43;98758.03;;;13.59;44.36
19259;BME280;9763;48.780;9.212;2023-05-25T03:53:07;98767.94;;;13.66;44.75
19259;BME280;9763;48.780;9.212;2023-05-25T03:56:32;98770.03;;;13.74;44.36
19259;BME280;9763;48.780;9.212;2023-05-25T03:59:56;98783.34;;;13.84;44.96
19259;BME280;9763;48.780;9.212;2023-05-25T04:03:20;98784.44;;;13.92;45.41
19259;BME280;9763;48.780;9.212;2023-05-25T04:06:44;98783.34;;;14.07;44.93
19259;BME280;9763;48.780;9.212;2023-05-25T04:10:14;98784.72;;;14.24;45.29
19259;BME280;9763;48.780;9.212;2023-05-25T04:13:44;98791.41;;;14.52;45.48
19259;BME280;9763;48.780;9.212;2023-05-25T04:17:08;98797.94;;;14.82;45.06
19259;BME280;9763;48.780;9.212;2023-05-25T04:20:34;98793.06;;;15.10;45.29
19259;BME280;9763;48.780;9.212;2023-05-25T04:24:03;98789.75;;;15.31;45.24
19259;BME280;9763;48.780;9.212;2023-05-25T04:27:28;98782.28;;;15.47;44.91
19259;BME280;9763;48.780;9.212;2023-05-25T04:30:54;98785.75;;;15.70;44.79
19259;BME280;9763;48.780;9.212;2023-05-25T04:34:42;98789.88;;;16.06;45.15
19259;BME280;9763;48.780;9.212;2023-05-25T04:38:12;98797.13;;;16.45;44.70
19259;BME280;9763;48.780;9.212;2023-05-25T04:41:39;98791.78;;;16.88;44.99
19259;BME280;9763;48.780;9.212;2023-05-25T04:45:07;98786.88;;;17.35;44.74
19259;BME280;9763;48.780;9.212;2023-05-25T04:48:33;98785.13;;;17.85;45.25
19259;BME280;9763;48.780;9.212;2023-05-25T04:51:59;98796.97;;;18.39;45.10
19259;BME280;9763;48.780;9.212;2023-05-25T04:55:25;98776.63;;;18.88;44.98
19259;BME280;9763;48.780;9.212;2023-05-25T04:58:49;98785.78;;;19.40;43.95
19259;BME280;9763;48.780;9.212;2023-05-25T05:02:13;98791.91;;;19.95;43.76
19259;BME280;9763;48.780;9.212;2023-05-25T05:05:39;98801.31;;;20.53;43.95
19259;BME280;9763;48.780;9.212;2023-05-25T05:09:10;98791.69;;;21.03;43.32
19259;BME280;9763;48.780;9.212;2023-05-25T05:12:34;98797.19;;;21.62;43.26
19259;BME280;9763;48.780;9.212;2023-05-25T05:15:59;98787.75;;;22.09;42.30
19259;BME280;9763;48.780;9.212;2023-05-25T05:19:23;98796.41;;;22.60;42.37
19259;BME280;9763;48.780;9.212;2023-05-25T05:22:49;98808.41;;;22.96;41.86
19259;BME280;9763;48.780;9.212;2023-05-25T05:26:14;98808.69;;;23.26;40.88
19259;BME280;9763;48.780;9.212;2023-05-25T05:29:38;98803.28;;;23.66;40.52
19259;BME280;9763;48.780;9.212;2023-05-25T05:33:02;98814.22;;;24.11;40.75
19259;BME280;9763;48.780;9.212;2023-05-25T05:36:32;98813.31;;;24.49;39.83
19259;BME280;9763;48.780;9.212;2023-05-25T05:40:18;98818.13;;;24.91;39.38
19259;BME280;9763;48.780;9.212;2023-05-25T05:43:42;98817.31;;;25.28;38.83
19259;BME280;9763;48.780;9.212;2023-05-25T05:47:08;98800.63;;;25.56;38.73
19259;BME280;9763;48.780;9.212;2023-05-25T05:50:32;98816.56;;;25.93;38.20
19259;BME280;9763;48.780;9.212;2023-05-25T05:53:56;98818.31;;;26.37;38.35
19259;BME280;9763;48.780;9.212;2023-05-25T05:57:21;98824.94;;;26.62;37.82
19259;BME280;9763;48.780;9.212;2023-05-25T06:00:45;98832.09;;;26.55;37.06
19259;BME280;9763;48.780;9.212;2023-05-25T06:04:10;98838.19;;;26.13;36.49
19259;BME280;9763;48.780;9.212;2023-05-25T06:07:34;98843.63;;;25.69;36.25
19259;BME280;9763;48.780;9.212;2023-05-25T06:10:59;98844.88;;;25.43;36.45
19259;BME280;9763;48.780;9.212;2023-05-25T06:14:24;98851.69;;;25.31;36.63
19259;BME280;9763;48.780;9.212;2023-05-25T06:17:54;98853.19;;;24.96;36.32
19259;BME280;9763;48.780;9.212;2023-05-25T06:21:18;98849.97;;;24.78;36.97
19259;BME280;9763;48.780;9.212;2023-05-25T06:24:43;98855.06;;;25.25;36.74
19259;BME280;9763;48.780;9.212;2023-05-25T06:28:08;98850.22;;;26.02;35.83
19259;BME280;9763;48.780;9.212;2023-05-25T06:31:33;98837.13;;;26.86;35.97
19259;BME280;9763;48.780;9.212;2023-05-25T06:34:57;98831.56;;;27.71;35.74
19259;BME280;9763;48.780;9.212;2023-05-25T06:38:22;98838.91;;;28.45;34.87
19259;BME280;9763;48.780;9.212;2023-05-25T06:41:47;98850.56;;;28.98;34.97
19259;BME280;9763;48.780;9.212;2023-05-25T06:45:21;98849.09;;;28.89;34.16
19259;BME280;9763;48.780;9.212;2023-05-25T06:48:46;98846.13;;;28.44;33.89
19259;BME280;9763;48.780;9.212;2023-05-25T06:52:10;98841.34;;;27.85;33.70
19259;BME280;9763;48.780;9.212;2023-05-25T06:55:34;98851.97;;;27.66;33.77
19259;BME280;9763;48.780;9.212;2023-05-25T06:58:57;98856.88;;;27.55;33.44
19259;BME280;9763;48.780;9.212;2023-05-25T07:02:21;98854.22;;;27.06;33.23
19259;BME280;9763;48.780;9.212;2023-05-25T07:05:46;98858.09;;;26.40;33.80
19259;BME280;9763;48.780;9.212;2023-05-25T07:09:10;98870.25;;;25.77;33.55
19259;BME280;9763;48.780;9.212;2023-05-25T07:12:34;98864.28;;;25.08;33.74
19259;BME280;9763;48.780;9.212;2023-05-25T07:15:58;98869.84;;;24.53;34.02
19259;BME280;9763;48.780;9.212;2023-05-25T07:19:22;98865.44;;;23.98;34.40
19259;BME280;9763;48.780;9.212;2023-05-25T07:22:47;98874.13;;;23.53;35.18
19259;BME280;9763;48.780;9.212;2023-05-25T07:26:12;98881.28;;;23.20;35.04
19259;BME280;9763;48.780;9.212;2023-05-25T07:29:36;98886.13;;;22.92;35.43
19259;BME280;9763;48.780;9.212;2023-05-25T07:33:00;98883.47;;;22.76;35.57
19259;BME280;9763;48.780;9.212;2023-05-25T07:36:24;98878.25;;;22.74;35.25
19259;BME280;9763;48.780;9.212;2023-05-25T07:39:49;98885.81;;;22.79;35.26
19259;BME280;9763;48.780;9.212;2023-05-25T07:43:12;98885.28;;;22.83;35.38
19259;BME280;9763;48.780;9.212;2023-05-25T07:46:36;98898.28;;;22.78;35.34
19259;BME280;9763;48.780;9.212;2023-05-25T07:50:00;98883.59;;;22.66;36.13
19259;BME280;9763;48.780;9.212;2023-05-25T07:53:24;98890.59;;;22.67;35.48
19259;BME280;9763;48.780;9.212;2023-05-25T07:56:49;98886.28;;;22.82;35.63
19259;BME280;9763;48.780;9.212;2023-05-25T08:00:13;98883.78;;;23.21;35.60
19259;BME280;9763;48.780;9.212;2023-05-25T08:03:38;98879.00;;;23.88;35.46
19259;BME280;9763;48.780;9.212;2023-05-25T08:07:09;98874.38;;;24.75;35.72
19259;BME280;9763;48.780;9.212;2023-05-25T08:10:32;98864.91;;;25.77;34.86
19259;BME280;9763;48.780;9.212;2023-05-25T08:13:57;98867.00;;;27.32;34.16
19259;BME280;9763;48.780;9.212;2023-05-25T08:17:22;98867.66;;;28.64;33.17
19259;BME280;9763;48.780;9.212;2023-05-25T08:20:46;98854.09;;;30.09;32.41
19259;BME280;9763;48.780;9.212;2023-05-25T08:24:10;98851.75;;;31.45;31.24
19259;BME280;9763;48.780;9.212;2023-05-25T08:27:33;98850.88;;;32.72;30.64
19259;BME280;9763;48.780;9.212;2023-05-25T08:30:59;98853.50;;;33.84;29.43
19259;BME280;9763;48.780;9.212;2023-05-25T08:34:23;98854.13;;;34.54;29.13
19259;BME280;9763;48.780;9.212;2023-05-25T08:37:46;98865.47;;;34.96;28.89
19259;BME280;9763;48.780;9.212;2023-05-25T08:41:12;98868.00;;;35.03;28.31
19259;BME280;9763;48.780;9.212;2023-05-25T08:44:37;98869.97;;;34.91;28.40
19259;BME280;9763;48.780;9.212;2023-05-25T08:48:08;98857.59;;;35.28;27.92
19259;BME280;9763;48.780;9.212;2023-05-25T08:51:36;98865.84;;;35.72;27.16
19259;BME280;9763;48.780;9.212;2023-05-25T08:55:04;98866.81;;;35.66;27.06
19259;BME280;9763;48.780;9.212;2023-05-25T08:58:32;98865.47;;;35.47;26.84
19259;BME280;9763;48.780;9.212;2023-05-25T09:02:07;98851.97;;;35.18;26.72
19259;BME280;9763;48.780;9.212;2023-05-25T09:05:39;98848.13;;;35.48;26.79
19259;BME280;9763;48.780;9.212;2023-05-25T09:09:04;98850.91;;;35.02;26.82
19259;BME280;9763;48.780;9.212;2023-05-25T09:12:30;98852.81;;;34.57;26.93
19259;BME280;9763;48.780;9.212;2023-05-25T09:15:54;98867.59;;;34.09;27.15
19259;BME280;9763;48.780;9.212;2023-05-25T09:19:19;98858.34;;;33.70;27.14
19259;BME280;9763;48.780;9.212;2023-05-25T09:22:46;98858.28;;;34.17;26.82
19259;BME280;9763;48.780;9.212;2023-05-25T09:26:10;98852.31;;;35.22;26.15
19259;BME280;9763;48.780;9.212;2023-05-25T09:29:34;98851.38;;;35.88;25.50
19259;BME280;9763;48.780;9.212;2023-05-25T09:33:09;98854.56;;;36.46;24.82
19259;BME280;9763;48.780;9.212;2023-05-25T09:36:34;98861.47;;;36.09;24.89
19259;BME280;9763;48.780;9.212;2023-05-25T09:40:02;98867.97;;;35.70;25.16
19259;BME280;9763;48.780;9.212;2023-05-25T09:43:26;98857.09;;;34.98;25.61
19259;BME280;9763;48.780;9.212;2023-05-25T09:47:05;98864.16;;;34.14;25.89
19259;BME280;9763;48.780;9.212;2023-05-25T09:50:29;98867.63;;;33.74;26.42
19259;BME280;9763;48.780;9.212;2023-05-25T09:53:54;98868.38;;;34.21;25.98
19259;BME280;9763;48.780;9.212;2023-05-25T09:57:19;98865.97;;;35.27;25.23
19259;BME280;9763;48.780;9.212;2023-05-25T10:00:43;98855.06;;;35.77;25.00
19259;BME280;9763;48.780;9.212;2023-05-25T10:04:08;98853.09;;;35.56;24.87
19259;BME280;9763;48.780;9.212;2023-05-25T10:07:31;98845.28;;;35.98;24.74
19259;BME280;9763;48.780;9.212;2023-05-25T10:10:56;98860.06;;;35.68;24.41
19259;BME280;9763;48.780;9.212;2023-05-25T10:14:26;98860.94;;;35.19;24.69
19259;BME280;9763;48.780;9.212;2023-05-25T10:17:53;98867.38;;;35.13;25.17
19259;BME280;9763;48.780;9.212;2023-05-25T10:21:18;98861.72;;;36.08;24.85
19259;BME280;9763;48.780;9.212;2023-05-25T10:24:51;98862.25;;;37.12;23.57
19259;BME280;9763;48.780;9.212;2023-05-25T10:28:24;98860.13;;;37.20;23.38
19259;BME280;9763;48.780;9.212;2023-05-25T10:31:51;98854.53;;;37.31;23.32
19259;BME280;9763;48.780;9.212;2023-05-25T10:35:16;98859.28;;;37.56;23.10
19259;BME280;9763;48.780;9.212;2023-05-25T10:38:42;98859.41;;;37.29;23.17
19259;BME280;9763;48.780;9.212;2023-05-25T10:42:06;98847.34;;;36.88;23.48
19259;BME280;9763;48.780;9.212;2023-05-25T10:45:31;98837.75;;;36.54;23.75
19259;BME280;9763;48.780;9.212;2023-05-25T10:48:56;98837.69;;;36.70;23.89
19259;BME280;9763;48.780;9.212;2023-05-25T10:52:27;98839.91;;;35.81;24.20
19259;BME280;9763;48.780;9.212;2023-05-25T10:56:01;98848.63;;;34.66;25.05
19259;BME280;9763;48.780;9.212;2023-05-25T10:59:26;98855.75;;;33.87;25.59
19259;BME280;9763;48.780;9.212;2023-05-25T11:02:52;98860.72;;;33.67;25.83
19259;BME280;9763;48.780;9.212;2023-05-25T11:06:20;98857.66;;;33.28;25.65
19259;BME280;9763;48.780;9.212;2023-05-25T11:09:57;98855.22;;;32.85;26.01
19259;BME280;9763;48.780;9.212;2023-05-25T11:13:37;98847.84;;;32.14;26.85
19259;BME280;9763;48.780;9.212;2023-05-25T11:17:04;98842.69;;;31.58;26.54
19259;BME280;9763;48.780;9.212;2023-05-25T11:20:29;98850.22;;;31.31;27.33
19259;BME280;9763;48.780;9.212;2023-05-25T11:23:56;98849.50;;;31.17;27.05
19259;BME280;9763;48.780;9.212;2023-05-25T11:27:28;98836.50;;;31.07;27.12
19259;BME280;9763;48.780;9.212;2023-05-25T11:30:52;98850.19;;;31.06;27.10
19259;BME280;9763;48.780;9.212;2023-05-25T11:34:17;98838.47;;;30.94;27.84
19259;BME280;9763;48.780;9.212;2023-05-25T11:37:49;98827.56;;;31.07;27.41
19259;BME280;9763;48.780;9.212;2023-05-25T11:41:17;98831.28;;;31.56;27.42
19259;BME280;9763;48.780;9.212;2023-05-25T11:44:41;98841.97;;;31.87;26.96
19259;BME280;9763;48.780;9.212;2023-05-25T11:48:05;98835.34;;;31.65;27.52
19259;BME280;9763;48.780;9.212;2023-05-25T11:51:29;98837.28;;;31.58;27.20
19259;BME280;9763;48.780;9.212;2023-05-25T11:54:53;98835.28;;;31.28;27.64
19259;BME280;9763;48.780;9.212;2023-05-25T11:58:19;98839.22;;;31.32;27.24
19259;BME280;9763;48.780;9.212;2023-05-25T12:01:43;98832.97;;;31.32;27.47
19259;BME280;9763;48.780;9.212;2023-05-25T12:05:07;98838.34;;;31.13;27.50
19259;BME280;9763;48.780;9.212;2023-05-25T12:08:32;98834.94;;;31.25;28.06
19259;BME280;9763;48.780;9.212;2023-05-25T12:11:57;98837.56;;;31.31;27.50
19259;BME280;9763;48.780;9.212;2023-05-25T12:15:24;98828.22;;;31.09;28.12
19259;BME280;9763;48.780;9.212;2023-05-25T12:18:49;98833.03;;;30.75;27.97
19259;BME280;9763;48.780;9.212;2023-05-25T12:22:14;98821.38;;;30.43;28.82
19259;BME280;9763;48.780;9.212;2023-05-25T12:25:38;98825.97;;;30.43;28.19
19259;BME280;9763;48.780;9.212;2023-05-25T12:29:12;98835.09;;;30.42;28.94
19259;BME280;9763;48.780;9.212;2023-05-25T12:36:41;98818.06;;;31.04;27.64
19259;BME280;9763;48.780;9.212;2023-05-25T12:40:17;98833.47;;;30.97;28.05
19259;BME280;9763;48.780;9.212;2023-05-25T12:43:42;98833.53;;;30.66;28.10
19259;BME280;9763;48.780;9.212;2023-05-25T12:47:11;98827.06;;;31.23;27.95
19259;BME280;9763;48.780;9.212;2023-05-25T12:50:35;98825.94;;;31.74;27.88
19259;BME280;9763;48.780;9.212;2023-05-25T12:54:00;98834.22;;;31.91;26.99
19259;BME280;9763;48.780;9.212;2023-05-25T12:57:33;98833.31;;;31.60;27.71
19259;BME280;9763;48.780;9.212;2023-05-25T13:00:57;98811.03;;;32.19;26.81
19259;BME280;9763;48.780;9.212;2023-05-25T13:04:21;98811.41;;;32.65;26.41
19259;BME280;9763;48.780;9.212;2023-05-25T13:07:45;98832.22;;;32.64;26.78
19259;BME280;9763;48.780;9.212;2023-05-25T13:11:10;98824.66;;;32.25;27.30
19259;BME280;9763;48.780;9.212;2023-05-25T13:14:33;98827.66;;;31.87;27.30
19259;BME280;9763;48.780;9.212;2023-05-25T13:17:57;98825.56;;;31.70;27.59
19259;BME280;9763;48.780;9.212;2023-05-25T13:21:21;98815.28;;;32.57;26.73
19259;BME280;9763;48.780;9.212;2023-05-25T13:24:45;98818.91;;;32.92;26.50
19259;BME280;9763;48.780;9.212;2023-05-25T13:28:10;98815.34;;;32.80;26.38
19259;BME280;9763;48.780;9.212;2023-05-25T13:31:34;98815.38;;;33.15;26.14
19259;BME280;9763;48.780;9.212;2023-05-25T13:34:58;98794.09;;;32.84;26.64
19259;BME280;9763;48.780;9.212;2023-05-25T13:38:22;98811.47;;;32.88;26.26
19259;BME280;9763;48.780;9.212;2023-05-25T13:41:46;98810.03;;;32.74;26.69
19259;BME280;9763;48.780;9.212;2023-05-25T13:45:11;98802.75;;;32.33;27.19
19259;BME280;9763;48.780;9.212;2023-05-25T13:48:35;98810.16;;;31.89;27.35
19259;BME280;9763;48.780;9.212;2023-05-25T13:51:59;98815.41;;;31.47;27.65
19259;BME280;9763;48.780;9.212;2023-05-25T13:55:23;98815.13;;;31.12;27.99
19259;BME280;9763;48.780;9.212;2023-05-25T13:58:46;98807.22;;;30.86;28.52
19259;BME280;9763;48.780;9.212;2023-05-25T14:02:12;98794.34;;;30.63;28.42
19259;BME280;9763;48.780;9.212;2023-05-25T14:05:36;98802.47;;;30.57;28.49
19259;BME280;9763;48.780;9.212;2023-05-25T14:09:00;98801.44;;;30.51;28.55
19259;BME280;9763;48.780;9.212;2023-05-25T14:12:25;98804.63;;;30.41;29.05
19259;BME280;9763;48.780;9.212;2023-05-25T14:15:49;98797.81;;;30.32;28.62
19259;BME280;9763;48.780;9.212;2023-05-25T14:19:14;98805.69;;;30.34;29.38
19259;BME280;9763;48.780;9.212;2023-05-25T14:22:38;98800.97;;;30.29;29.38
19259;BME280;9763;48.780;9.212;2023-05-25T14:26:02;98795.22;;;30.19;28.92
19259;BME280;9763;48.780;9.212;2023-05-25T14:29:27;98801.13;;;30.03;28.85
19259;BME280;9763;48.780;9.212;2023-05-25T14:32:50;98801.59;;;29.80;29.36
19259;BME280;9763;48.780;9.212;2023-05-25T14:36:15;98800.25;;;29.58;29.20
19259;BME280;9763;48.780;9.212;2023-05-25T14:39:39;98794.91;;;29.31;29.34
19259;BME280;9763;48.780;9.212;2023-05-25T14:43:03;98805.06;;;29.16;29.60
19259;BME280;9763;48.780;9.212;2023-05-25T14:46:27;98814.38;;;28.94;29.76
19259;BME280;9763;48.780;9.212;2023-05-25T14:49:50;98813.91;;;28.77;29.75
19259;BME280;9763;48.780;9.212;2023-05-25T14:53:16;98800.47;;;28.51;30.13
19259;BME280;9763;48.780;9.212;2023-05-25T14:56:40;98799.22;;;28.40;30.03
19259;BME280;9763;48.780;9.212;2023-05-25T15:00:05;98806.88;;;28.43;30.89
19259;BME280;9763;48.780;9.212;2023-05-25T15:03:29;98808.53;;;28.38;30.28
19259;BME280;9763;48.780;9.212;2023-05-25T15:06:53;98814.94;;;28.37;30.40
19259;BME280;9763;48.780;9.212;2023-05-25T15:10:19;98806.66;;;28.45;30.87
19259;BME280;9763;48.780;9.212;2023-05-25T15:13:43;98804.59;;;28.47;30.38
19259;BME280;9763;48.780;9.212;2023-05-25T15:17:06;98808.13;;;28.47;30.74
19259;BME280;9763;48.780;9.212;2023-05-25T15:20:30;98800.63;;;28.29;30.76
19259;BME280;9763;48.780;9.212;2023-05-25T15:23:54;98797.88;;;28.10;30.57
19259;BME280;9763;48.780;9.212;2023-05-25T15:27:19;98800.72;;;27.95;31.45
19259;BME280;9763;48.780;9.212;2023-05-25T15:30:43;98808.91;;;27.80;30.77
19259;BME280;9763;48.780;9.212;2023-05-25T15:34:07;98801.00;;;27.66;31.00
19259;BME280;9763;48.780;9.212;2023-05-25T15:37:33;98810.00;;;27.51;31.63
19259;BME280;9763;48.780;9.212;2023-05-25T15:40:57;98809.72;;;27.40;31.95
19259;BME280;9763;48.780;9.212;2023-05-25T15:44:22;98794.38;;;27.27;31.50
19259;BME280;9763;48.780;9.212;2023-05-25T15:47:46;98797.19;;;27.19;31.43
19259;BME280;9763;48.780;9.212;2023-05-25T15:51:10;98803.16;;;27.14;32.08
19259;BME280;9763;48.780;9.212;2023-05-25T15:54:34;98808.66;;;27.06;32.35
19259;BME280;9763;48.780;9.212;2023-05-25T15:57:57;98804.91;;;27.01;31.83
19259;BME280;9763;48.780;9.212;2023-05-25T16:01:23;98797.81;;;26.93;31.84
19259;BME280;9763;48.780;9.212;2023-05-25T16:04:46;98795.72;;;26.88;32.22
19259;BME280;9763;48.780;9.212;2023-05-25T16:08:10;98795.03;;;26.80;32.09
19259;BME280;9763;48.780;9.212;2023-05-25T16:11:35;98796.44;;;26.76;31.95
19259;BME280;9763;48.780;9.212;2023-05-25T16:14:59;98799.50;;;26.73;32.73
19259;BME280;9763;48.780;9.212;2023-05-25T16:18:24;98791.22;;;26.68;32.37
19259;BME280;9763;48.780;9.212;2023-05-25T16:21:48;98800.03;;;26.62;32.25
19259;BME280;9763;48.780;9.212;2023-05-25T16:25:12;98802.88;;;26.60;32.27
19259;BME280;9763;48.780;9.212;2023-05-25T16:28:36;98805.13;;;26.57;32.43
19259;BME280;9763;48.780;9.212;2023-05-25T16:32:00;98795.63;;;26.54;32.88
19259;BME280;9763;48.780;9.212;2023-05-25T16:35:25;98795.19;;;26.50;33.11
19259;BME280;9763;48.780;9.212;2023-05-25T16:38:49;98798.22;;;26.47;33.29
19259;BME280;9763;48.780;9.212;2023-05-25T16:42:12;98793.47;;;26.43;32.53
19259;BME280;9763;48.780;9.212;2023-05-25T16:45:36;98793.66;;;26.41;32.64
19259;BME280;9763;48.780;9.212;2023-05-25T16:49:00;98792.00;;;26.40;32.77
19259;BME280;9763;48.780;9.212;2023-05-25T16:52:25;98789.88;;;26.36;32.64
19259;BME280;9763;48.780;9.212;2023-05-25T16:55:49;98780.13;;;26.28;32.95
19259;BME280;9763;48.780;9.212;2023-05-25T16:59:12;98786.31;;;26.29;32.67
19259;BME280;9763;48.780;9.212;2023-05-25T17:02:36;98793.22;;;26.23;33.20
19259;BME280;9763;48.780;9.212;2023-05-25T17:06:00;98787.44;;;26.19;33.23
19259;BME280;9763;48.780;9.212;2023-05-25T17:09:26;98786.16;;;26.15;32.93
19259;BME280;9763;48.780;9.212;2023-05-25T17:12:50;98790.41;;;26.10;33.63
19259;BME280;9763;48.780;9.212;2023-05-25T17:16:15;98789.78;;;26.08;32.84
19259;BME280;9763;48.780;9.212;2023-05-25T17:19:40;98787.47;;;26.05;33.08
19259;BME280;9763;48.780;9.212;2023-05-25T17:23:05;98787.22;;;26.00;33.09
19259;BME280;9763;48.780;9.212;2023-05-25T17:26:32;98762.91;;;25.80;33.62
19259;BME280;9763;48.780;9.212;2023-05-25T17:29:57;98793.03;;;25.89;33.30
19259;BME280;9763;48.780;9.212;2023-05-25T17:33:21;98785.38;;;25.86;33.58
19259;BME280;9763;48.780;9.212;2023-05-25T17:36:44;98787.81;;;25.80;33.94
19259;BME280;9763;48.780;9.212;2023-05-25T17:40:10;98787.53;;;25.75;33.85
19259;BME280;9763;48.780;9.212;2023-05-25T17:43:36;98795.13;;;25.72;33.59
19259;BME280;9763;48.780;9.212;2023-05-25T17:47:00;98798.72;;;25.64;34.07
19259;BME280;9763;48.780;9.212;2023-05-25T17:50:24;98792.78;;;25.54;33.49
19259;BME280;9763;48.780;9.212;2023-05-25T17:53:47;98796.00;;;25.49;34.25
19259;BME280;9763;48.780;9.212;2023-05-25T17:57:11;98806.44;;;25.44;33.61
19259;BME280;9763;48.780;9.212;2023-05-25T18:00:36;98810.03;;;25.37;34.33
19259;BME280;9763;48.780;9.212;2023-05-25T18:04:00;98809.28;;;25.28;33.80
19259;BME280;9763;48.780;9.212;2023-05-25T18:07:24;98811.22;;;25.20;34.30
19259;BME280;9763;48.780;9.212;2023-05-25T18:10:48;98823.63;;;25.12;34.30
19259;BME280;9763;48.780;9.212;2023-05-25T18:14:14;98819.22;;;25.05;34.59
19259;BME280;9763;48.780;9.212;2023-05-25T18:17:39;98816.97;;;24.94;34.35
19259;BME280;9763;48.780;9.212;2023-05-25T18:21:03;98817.31;;;24.91;34.10
19259;BME280;9763;48.780;9.212;2023-05-25T18:24:26;98820.72;;;24.85;34.25
19259;BME280;9763;48.780;9.212;2023-05-25T18:27:50;98832.94;;;24.79;34.78